createdAt,value
2019-05-05T00:00:52.121Z,0.42
2019-05-05T00:01:52.099Z,0.38
2019-05-05T00:02:52.112Z,0.36
2019-05-05T00:03:52.101Z,0.39
2019-05-05T00:04:54.304Z,0.48
2019-05-05T00:05:52.059Z,0.48
2019-05-05T00:06:52.109Z,0.43
2019-05-05T00:07:54.067Z,0.49
2019-05-05T00:08:52.034Z,0.39
2019-05-05T00:09:52.043Z,0.45
2019-05-05T00:10:54.531Z,0.57
2019-05-05T00:11:52.362Z,0.62
2019-05-05T00:12:51.988Z,0.65
2019-05-05T00:13:51.998Z,0.58
2019-05-05T00:14:51.967Z,0.58
2019-05-05T00:15:51.967Z,0.57
2019-05-05T00:16:51.936Z,0.57
2019-05-05T00:17:51.950Z,0.61
2019-05-05T00:18:54.134Z,0.46
2019-05-05T00:19:51.906Z,0.45
2019-05-05T00:20:51.898Z,0.52
2019-05-05T00:21:52.393Z,0.45
2019-05-05T00:22:51.884Z,0.46
2019-05-05T00:23:51.862Z,0.45
2019-05-05T00:24:51.864Z,0.41
2019-05-05T00:25:51.888Z,0.48
2019-05-05T00:26:51.859Z,0.45
2019-05-05T00:27:51.817Z,0.46
2019-05-05T00:28:51.823Z,0.41
2019-05-05T00:29:51.791Z,0.43
2019-05-05T00:30:51.783Z,0.43
2019-05-05T00:31:51.779Z,0.39
2019-05-05T00:32:51.802Z,0.34
2019-05-05T00:33:51.783Z,0.41
2019-05-05T00:34:51.782Z,0.41
2019-05-05T00:35:51.749Z,0.41
2019-05-05T00:36:51.728Z,0.53
2019-05-05T00:37:51.709Z,0.52
2019-05-05T00:38:51.714Z,0.42
2019-05-05T00:39:51.685Z,0.46
2019-05-05T00:40:51.675Z,0.38
2019-05-05T00:41:51.745Z,0.39
2019-05-05T00:42:51.667Z,0.48
2019-05-05T00:43:51.680Z,0.43
2019-05-05T00:44:51.639Z,0.48
2019-05-05T00:45:51.629Z,0.48
2019-05-05T00:46:51.609Z,0.46
2019-05-05T00:47:51.602Z,0.34
2019-05-05T00:48:51.628Z,0.25
2019-05-05T00:49:51.595Z,0.36
2019-05-05T00:50:51.885Z,0.25
2019-05-05T00:51:51.575Z,0.10
2019-05-05T00:52:51.543Z,0.24
2019-05-05T00:53:51.541Z,0.18
2019-05-05T00:54:51.545Z,0.16
2019-05-05T00:55:51.508Z,0.16
2019-05-05T00:56:51.517Z,0.07
2019-05-05T00:57:51.495Z,0.03
2019-05-05T00:58:51.506Z,0.02
2019-05-05T00:59:51.485Z,0.15
2019-05-05T01:00:51.471Z,0.09
2019-05-05T01:01:51.443Z,0.06
2019-05-05T01:02:51.442Z,0.05
2019-05-05T01:03:51.435Z,-0.01
2019-05-05T01:04:51.429Z,0.07
2019-05-05T01:05:51.431Z,0.05
2019-05-05T01:06:51.429Z,-0.15
2019-05-05T01:07:51.381Z,-0.18
2019-05-05T01:08:51.386Z,-0.15
2019-05-05T01:09:51.378Z,-0.26
2019-05-05T01:10:51.365Z,-0.26
2019-05-05T01:11:51.827Z,-0.24
2019-05-05T01:12:51.332Z,-0.29
2019-05-05T01:13:51.315Z,-0.34
2019-05-05T01:14:51.315Z,-0.39
2019-05-05T01:15:51.295Z,-0.37
2019-05-05T01:16:51.848Z,-0.39
2019-05-05T01:17:51.274Z,-0.36
2019-05-05T01:18:51.278Z,-0.51
2019-05-05T01:20:01.163Z,-0.47
2019-05-05T01:20:52.245Z,-0.45
2019-05-05T01:21:51.234Z,-0.59
2019-05-05T01:22:51.251Z,-0.60
2019-05-05T01:23:51.248Z,-0.66
2019-05-05T01:24:51.198Z,-0.68
2019-05-05T01:25:51.189Z,-0.66
2019-05-05T01:26:51.175Z,-0.59
2019-05-05T01:27:51.165Z,-0.48
2019-05-05T01:28:51.169Z,-0.51
2019-05-05T01:29:51.164Z,-0.52
2019-05-05T01:30:51.129Z,-0.48
2019-05-05T01:31:51.143Z,-0.59
2019-05-05T01:32:51.118Z,-0.60
2019-05-05T01:33:51.114Z,-0.66
2019-05-05T01:34:51.160Z,-0.77
2019-05-05T01:35:51.098Z,-0.73
2019-05-05T01:36:51.066Z,-0.77
2019-05-05T01:37:51.052Z,-0.81
2019-05-05T01:38:51.043Z,-0.86
2019-05-05T01:39:51.031Z,-0.89
2019-05-05T01:40:51.047Z,-0.89
2019-05-05T01:41:51.017Z,-0.83
2019-05-05T01:42:51.002Z,-0.75
2019-05-05T01:43:51.080Z,-0.73
2019-05-05T01:44:50.994Z,-0.73
2019-05-05T01:45:50.968Z,-0.92
2019-05-05T01:46:50.973Z,-0.89
2019-05-05T01:47:50.944Z,-0.86
2019-05-05T01:48:50.935Z,-0.91
2019-05-05T01:49:50.995Z,-0.91
2019-05-05T01:50:50.920Z,-0.95
2019-05-05T01:51:50.908Z,-0.83
2019-05-05T01:52:50.890Z,-0.89
2019-05-05T01:53:50.892Z,-0.99
2019-05-05T01:54:50.893Z,-0.89
2019-05-05T01:55:50.891Z,-0.94
2019-05-05T01:56:52.344Z,-1.02
2019-05-05T01:57:50.852Z,-1.07
2019-05-05T01:58:50.832Z,-1.03
2019-05-05T01:59:50.822Z,-1.03
2019-05-05T02:00:50.860Z,-0.99
2019-05-05T02:01:50.794Z,-0.94
2019-05-05T02:02:50.812Z,-1.02
2019-05-05T02:03:50.774Z,-1.10
2019-05-05T02:04:50.782Z,-1.13
2019-05-05T02:05:50.768Z,-1.18
2019-05-05T02:06:50.737Z,-1.18
2019-05-05T02:07:50.805Z,-1.09
2019-05-05T02:08:50.724Z,-1.20
2019-05-05T02:09:50.711Z,-1.20
2019-05-05T02:10:50.697Z,-1.21
2019-05-05T02:11:50.693Z,-1.20
2019-05-05T02:12:50.674Z,-1.24
2019-05-05T02:13:50.715Z,-1.28
2019-05-05T02:14:50.660Z,-1.27
2019-05-05T02:15:50.644Z,-1.39
2019-05-05T02:16:50.636Z,-1.35
2019-05-05T02:17:50.622Z,-1.30
2019-05-05T02:18:50.612Z,-1.43
2019-05-05T02:19:50.617Z,-1.41
2019-05-05T02:20:50.624Z,-1.48
2019-05-05T02:21:50.578Z,-1.53
2019-05-05T02:22:50.567Z,-1.51
2019-05-05T02:23:50.567Z,-1.54
2019-05-05T02:24:50.575Z,-1.62
2019-05-05T02:25:50.532Z,-1.60
2019-05-05T02:26:50.524Z,-1.59
2019-05-05T02:27:50.534Z,-1.62
2019-05-05T02:28:50.505Z,-1.69
2019-05-05T02:29:50.539Z,-1.75
2019-05-05T02:30:50.551Z,-1.67
2019-05-05T02:31:50.488Z,-1.63
2019-05-05T02:32:50.476Z,-1.66
2019-05-05T02:33:50.450Z,-1.60
2019-05-05T02:34:50.488Z,-1.66
2019-05-05T02:35:50.436Z,-1.74
2019-05-05T02:36:50.428Z,-1.72
2019-05-05T02:37:50.425Z,-1.64
2019-05-05T02:38:50.391Z,-1.82
2019-05-05T02:39:57.617Z,-1.80
2019-05-05T02:40:51.384Z,-1.82
2019-05-05T02:41:50.382Z,-1.81
2019-05-05T02:42:50.355Z,-1.77
2019-05-05T02:43:50.367Z,-1.75
2019-05-05T02:44:50.328Z,-1.84
2019-05-05T02:45:50.811Z,-1.92
2019-05-05T02:46:50.332Z,-1.87
2019-05-05T02:47:50.379Z,-1.81
2019-05-05T02:48:50.304Z,-1.75
2019-05-05T02:49:50.295Z,-1.72
2019-05-05T02:50:55.907Z,-1.69
2019-05-05T02:51:51.271Z,-1.67
2019-05-05T02:52:50.258Z,-1.72
2019-05-05T02:53:50.229Z,-1.84
2019-05-05T02:54:50.222Z,-1.85
2019-05-05T02:55:50.208Z,-1.95
2019-05-05T02:56:50.210Z,-1.84
2019-05-05T02:57:50.188Z,-1.84
2019-05-05T02:58:50.218Z,-1.95
2019-05-05T02:59:50.161Z,-1.87
2019-05-05T03:00:50.154Z,-1.84
2019-05-05T03:01:50.199Z,-1.77
2019-05-05T03:02:50.128Z,-1.77
2019-05-05T03:03:50.119Z,-1.75
2019-05-05T03:04:50.140Z,-1.81
2019-05-05T03:05:50.095Z,-1.84
2019-05-05T03:06:50.095Z,-1.96
2019-05-05T03:07:50.101Z,-1.99
2019-05-05T03:08:50.064Z,-1.96
2019-05-05T03:09:50.783Z,-2.02
2019-05-05T03:10:50.042Z,-2.03
2019-05-05T03:11:50.041Z,-1.98
2019-05-05T03:12:50.033Z,-1.88
2019-05-05T03:13:50.050Z,-1.95
2019-05-05T03:14:50.023Z,-1.93
2019-05-05T03:15:49.989Z,-1.98
2019-05-05T03:16:49.979Z,-1.95
2019-05-05T03:17:49.995Z,-1.93
2019-05-05T03:18:49.964Z,-1.93
2019-05-05T03:19:49.955Z,-1.90
2019-05-05T03:21:01.663Z,-1.87
2019-05-05T03:21:51.019Z,-1.88
2019-05-05T03:22:49.930Z,-1.92
2019-05-05T03:23:49.902Z,-1.87
2019-05-05T03:24:49.913Z,-1.99
2019-05-05T03:25:49.876Z,-2.05
2019-05-05T03:26:49.869Z,-1.98
2019-05-05T03:27:50.300Z,-2.08
2019-05-05T03:28:49.850Z,-2.06
2019-05-05T03:29:49.835Z,-2.06
2019-05-05T03:30:50.774Z,-2.02
2019-05-05T03:31:49.821Z,-2.08
2019-05-05T03:32:49.816Z,-2.05
2019-05-05T03:33:49.862Z,-2.10
2019-05-05T03:34:50.767Z,-2.10
2019-05-05T03:35:49.778Z,-2.06
2019-05-05T03:36:49.772Z,-2.10
2019-05-05T03:37:49.757Z,-2.11
2019-05-05T03:38:49.761Z,-2.08
2019-05-05T03:39:49.737Z,-2.02
2019-05-05T03:40:49.713Z,-2.08
2019-05-05T03:41:49.754Z,-2.06
2019-05-05T03:42:49.701Z,-2.13
2019-05-05T03:43:50.271Z,-2.14
2019-05-05T03:44:49.686Z,-1.99
2019-05-05T03:45:49.664Z,-2.03
2019-05-05T03:46:50.265Z,-2.02
2019-05-05T03:47:49.637Z,-1.92
2019-05-05T03:48:49.661Z,-1.93
2019-05-05T03:49:49.661Z,-1.85
2019-05-05T03:50:49.620Z,-1.66
2019-05-05T03:51:49.601Z,-1.74
2019-05-05T03:52:49.581Z,-1.59
2019-05-05T03:53:49.591Z,-1.59
2019-05-05T03:54:49.580Z,-1.59
2019-05-05T03:55:49.564Z,-1.69
2019-05-05T03:56:49.543Z,-1.63
2019-05-05T03:57:49.566Z,-1.60
2019-05-05T03:58:49.519Z,-1.54
2019-05-05T03:59:49.526Z,-1.57
2019-05-05T04:00:49.518Z,-1.63
2019-05-05T04:01:49.488Z,-1.57
2019-05-05T04:02:57.803Z,-1.62
2019-05-05T04:03:57.017Z,-1.59
2019-05-05T04:04:57.013Z,-1.62
2019-05-05T04:05:49.497Z,-1.72
2019-05-05T04:06:57.951Z,-1.69
2019-05-05T04:07:57.990Z,-1.72
2019-05-05T04:08:49.411Z,-1.74
2019-05-05T04:09:49.405Z,-1.67
2019-05-05T04:10:58.015Z,-1.60
2019-05-05T04:11:59.056Z,-1.64
2019-05-05T04:12:58.575Z,-1.51
2019-05-05T04:13:56.922Z,-1.53
2019-05-05T04:14:56.892Z,-1.53
2019-05-05T04:15:49.343Z,-1.49
2019-05-05T04:16:49.330Z,-1.49
2019-05-05T04:17:49.446Z,-1.48
2019-05-05T04:18:49.658Z,-1.46
2019-05-05T04:19:49.293Z,-1.42
2019-05-05T04:20:49.297Z,-1.33
2019-05-05T04:21:49.274Z,-1.28
2019-05-05T04:22:49.286Z,-1.17
2019-05-05T04:23:49.648Z,-1.18
2019-05-05T04:24:49.245Z,-1.12
2019-05-05T04:25:49.247Z,-1.09
2019-05-05T04:26:49.218Z,-1.12
2019-05-05T04:27:49.245Z,-1.02
2019-05-05T04:28:49.249Z,-1.09
2019-05-05T04:29:49.183Z,-0.89
2019-05-05T04:30:49.177Z,-0.99
2019-05-05T04:31:49.163Z,-0.86
2019-05-05T04:32:49.152Z,-0.83
2019-05-05T04:33:49.184Z,-0.68
2019-05-05T04:34:49.147Z,-0.77
2019-05-05T04:35:49.118Z,-0.72
2019-05-05T04:36:49.110Z,-0.73
2019-05-05T04:37:49.105Z,-0.75
2019-05-05T04:38:49.084Z,-0.66
2019-05-05T04:39:49.090Z,-0.69
2019-05-05T04:40:49.123Z,-0.60
2019-05-05T04:41:49.054Z,-0.62
2019-05-05T04:42:49.095Z,-0.59
2019-05-05T04:43:49.036Z,-0.62
2019-05-05T04:44:49.032Z,-0.60
2019-05-05T04:45:49.041Z,-0.48
2019-05-05T04:46:49.009Z,-0.41
2019-05-05T04:47:48.988Z,-0.39
2019-05-05T04:48:48.986Z,-0.27
2019-05-05T04:49:48.970Z,-0.24
2019-05-05T04:50:49.057Z,-0.05
2019-05-05T04:51:50.410Z,0.06
2019-05-05T04:52:48.964Z,0.12
2019-05-05T04:53:48.942Z,0.28
2019-05-05T04:54:48.916Z,0.48
2019-05-05T04:55:48.900Z,0.61
2019-05-05T04:56:48.911Z,0.78
2019-05-05T04:57:48.893Z,0.78
2019-05-05T04:58:48.891Z,0.90
2019-05-05T04:59:48.856Z,1.10
2019-05-05T05:00:48.864Z,1.18
2019-05-05T05:01:48.876Z,1.34
2019-05-05T05:02:48.831Z,1.40
2019-05-05T05:03:48.846Z,1.50
2019-05-05T05:04:48.807Z,1.69
2019-05-05T05:05:48.818Z,1.76
2019-05-05T05:06:48.797Z,2.12
2019-05-05T05:07:48.788Z,2.16
2019-05-05T05:08:48.767Z,2.41
2019-05-05T05:09:48.754Z,2.41
2019-05-05T05:10:48.736Z,2.52
2019-05-05T05:11:48.726Z,3.42
2019-05-05T05:12:48.766Z,4.04
2019-05-05T05:13:48.701Z,4.84
2019-05-05T05:14:48.700Z,5.46
2019-05-05T05:15:48.683Z,6.13
2019-05-05T05:16:48.678Z,6.48
2019-05-05T05:17:48.659Z,6.95
2019-05-05T05:18:48.671Z,7.13
2019-05-05T05:19:49.610Z,7.50
2019-05-05T05:20:48.636Z,7.92
2019-05-05T05:21:59.355Z,8.22
2019-05-05T05:22:49.607Z,8.62
2019-05-05T05:23:48.609Z,8.94
2019-05-05T05:24:48.640Z,9.49
2019-05-05T05:25:48.575Z,9.43
2019-05-05T05:26:48.564Z,8.30
2019-05-05T05:27:48.559Z,8.02
2019-05-05T05:28:48.558Z,8.12
2019-05-05T05:29:48.527Z,8.32
2019-05-05T05:30:48.543Z,8.76
2019-05-05T05:31:48.516Z,9.25
2019-05-05T05:32:48.498Z,9.04
2019-05-05T05:33:48.637Z,9.50
2019-05-05T05:34:48.550Z,9.83
2019-05-05T05:35:48.462Z,10.24
2019-05-05T05:36:48.463Z,10.71
2019-05-05T05:37:48.540Z,11.07
2019-05-05T05:38:48.494Z,11.27
2019-05-05T05:39:48.422Z,11.61
2019-05-05T05:40:48.417Z,11.83
2019-05-05T05:41:48.411Z,11.80
2019-05-05T05:42:51.158Z,11.62
2019-05-05T05:43:48.389Z,11.57
2019-05-05T05:44:48.395Z,11.77
2019-05-05T05:45:49.106Z,11.36
2019-05-05T05:46:48.354Z,11.38
2019-05-05T05:47:49.334Z,11.46
2019-05-05T05:48:48.503Z,11.43
2019-05-05T05:49:48.339Z,11.82
2019-05-05T05:50:48.368Z,12.16
2019-05-05T05:51:48.293Z,12.41
2019-05-05T05:52:48.272Z,12.69
2019-05-05T05:53:48.259Z,12.62
2019-05-05T05:54:48.258Z,12.89
2019-05-05T05:55:48.392Z,12.79
2019-05-05T05:56:48.632Z,12.78
2019-05-05T05:58:04.854Z,12.81
2019-05-05T05:58:48.219Z,12.96
2019-05-05T05:59:49.122Z,12.33
2019-05-05T06:00:48.218Z,11.87
2019-05-05T06:01:48.629Z,11.44
2019-05-05T06:02:49.143Z,11.62
2019-05-05T06:03:48.148Z,11.74
2019-05-05T06:04:51.104Z,11.82
2019-05-05T06:05:49.169Z,12.06
2019-05-05T06:06:51.631Z,12.27
2019-05-05T06:07:48.255Z,12.64
2019-05-05T06:08:48.609Z,12.84
2019-05-05T06:09:48.080Z,12.85
2019-05-05T06:10:48.113Z,11.64
2019-05-05T06:11:48.913Z,11.52
2019-05-05T06:12:48.089Z,11.77
2019-05-05T06:13:48.037Z,12.31
2019-05-05T06:14:48.608Z,12.78
2019-05-05T06:15:48.048Z,13.17
2019-05-05T06:16:48.043Z,13.41
2019-05-05T06:17:48.309Z,13.27
2019-05-05T06:18:47.985Z,13.56
2019-05-05T06:19:48.708Z,13.98
2019-05-05T06:20:47.959Z,14.24
2019-05-05T06:21:47.949Z,14.20
2019-05-05T06:22:48.012Z,13.96
2019-05-05T06:23:48.665Z,13.96
2019-05-05T06:24:47.915Z,13.96
2019-05-05T06:25:47.910Z,13.94
2019-05-05T06:26:47.891Z,13.47
2019-05-05T06:27:48.607Z,13.03
2019-05-05T06:28:47.914Z,12.82
2019-05-05T06:29:47.890Z,12.59
2019-05-05T06:30:50.669Z,12.79
2019-05-05T06:31:50.606Z,13.11
2019-05-05T06:32:47.826Z,13.59
2019-05-05T06:33:47.838Z,13.92
2019-05-05T06:34:47.896Z,14.32
2019-05-05T06:35:47.815Z,14.74
2019-05-05T06:36:50.609Z,14.67
2019-05-05T06:37:47.774Z,14.95
2019-05-05T06:38:47.786Z,14.72
2019-05-05T06:39:49.626Z,14.31
2019-05-05T06:40:48.830Z,14.20
2019-05-05T06:41:47.851Z,14.16
2019-05-05T06:42:47.883Z,13.91
2019-05-05T06:43:50.636Z,13.92
2019-05-05T06:44:47.707Z,13.91
2019-05-05T06:45:47.704Z,13.41
2019-05-05T06:46:47.898Z,13.67
2019-05-05T06:47:54.662Z,13.88
2019-05-05T06:48:47.692Z,14.39
2019-05-05T06:49:47.644Z,14.38
2019-05-05T06:50:47.628Z,14.75
2019-05-05T06:51:47.619Z,15.12
2019-05-05T06:52:47.859Z,15.23
2019-05-05T06:53:47.625Z,15.23
2019-05-05T06:54:47.595Z,14.75
2019-05-05T06:55:47.574Z,14.71
2019-05-05T06:56:47.560Z,15.15
2019-05-05T06:57:47.787Z,15.17
2019-05-05T06:58:47.570Z,14.83
2019-05-05T06:59:47.843Z,14.14
2019-05-05T07:00:47.576Z,14.32
2019-05-05T07:01:50.142Z,14.29
2019-05-05T07:02:47.504Z,14.88
2019-05-05T07:03:47.801Z,14.90
2019-05-05T07:04:47.504Z,15.27
2019-05-05T07:05:47.499Z,14.74
2019-05-05T07:06:54.175Z,14.43
2019-05-05T07:07:49.118Z,14.44
2019-05-05T07:08:47.435Z,14.88
2019-05-05T07:09:47.649Z,15.02
2019-05-05T07:11:04.088Z,15.41
2019-05-05T07:11:48.602Z,15.93
2019-05-05T07:12:47.390Z,16.06
2019-05-05T07:13:50.805Z,15.93
2019-05-05T07:14:47.367Z,15.92
2019-05-05T07:16:08.360Z,16.03
2019-05-05T07:16:48.228Z,15.92
2019-05-05T07:17:47.334Z,16.09
2019-05-05T07:18:47.320Z,16.00
2019-05-05T07:19:47.632Z,14.71
2019-05-05T07:20:47.313Z,14.49
2019-05-05T07:21:47.394Z,14.44
2019-05-05T07:22:58.746Z,14.49
2019-05-05T07:23:49.165Z,14.67
2019-05-05T07:24:48.115Z,14.31
2019-05-05T07:25:47.267Z,14.06
2019-05-05T07:26:47.255Z,13.18
2019-05-05T07:27:48.362Z,13.43
2019-05-05T07:28:47.791Z,13.77
2019-05-05T07:29:47.689Z,13.96
2019-05-05T07:30:48.194Z,14.16
2019-05-05T07:31:50.147Z,13.83
2019-05-05T07:32:50.107Z,12.69
2019-05-05T07:33:47.178Z,12.78
2019-05-05T07:34:48.116Z,13.27
2019-05-05T07:35:56.639Z,13.12
2019-05-05T07:36:47.122Z,12.38
2019-05-05T07:37:47.690Z,11.67
2019-05-05T07:38:47.616Z,11.75
2019-05-05T07:39:47.324Z,11.85
2019-05-05T07:40:47.160Z,11.41
2019-05-05T07:41:47.087Z,10.80
2019-05-05T07:42:47.136Z,10.73
2019-05-05T07:43:47.050Z,12.20
2019-05-05T07:44:47.036Z,12.99
2019-05-05T07:45:47.122Z,13.94
2019-05-05T07:46:47.036Z,13.83
2019-05-05T07:47:47.639Z,12.46
2019-05-05T07:48:47.028Z,11.27
2019-05-05T07:49:46.986Z,11.10
2019-05-05T07:50:58.696Z,11.93
2019-05-05T07:51:48.246Z,12.39
2019-05-05T07:52:46.951Z,12.64
2019-05-05T07:53:47.993Z,11.50
2019-05-05T07:54:46.924Z,11.27
2019-05-05T07:55:49.611Z,10.80
2019-05-05T07:56:47.612Z,10.68
2019-05-05T07:57:47.146Z,12.06
2019-05-05T07:58:46.884Z,12.67
2019-05-05T07:59:47.647Z,13.20
2019-05-05T08:00:46.863Z,13.99
2019-05-05T08:01:46.937Z,14.24
2019-05-05T08:02:46.852Z,13.84
2019-05-05T08:03:47.132Z,13.71
2019-05-05T08:04:47.612Z,13.32
2019-05-05T08:05:46.806Z,13.32
2019-05-05T08:06:46.809Z,14.12
2019-05-05T08:07:46.793Z,14.37
2019-05-05T08:08:46.800Z,15.13
2019-05-05T08:09:46.770Z,15.60
2019-05-05T08:10:49.664Z,14.75
2019-05-05T08:11:46.733Z,14.65
2019-05-05T08:12:46.747Z,14.72
2019-05-05T08:13:47.665Z,14.95
2019-05-05T08:14:46.793Z,14.91
2019-05-05T08:15:56.797Z,15.54
2019-05-05T08:16:47.675Z,15.19
2019-05-05T08:17:46.665Z,15.03
2019-05-05T08:18:46.670Z,14.46
2019-05-05T08:19:46.647Z,12.97
2019-05-05T08:20:46.651Z,12.34
2019-05-05T08:21:47.621Z,13.07
2019-05-05T08:22:47.612Z,14.25
2019-05-05T08:23:46.630Z,15.23
2019-05-05T08:24:46.593Z,15.12
2019-05-05T08:25:46.605Z,13.91
2019-05-05T08:26:46.713Z,13.04
2019-05-05T08:27:53.699Z,13.73
2019-05-05T08:28:46.633Z,13.74
2019-05-05T08:29:47.155Z,13.07
2019-05-05T08:30:46.681Z,13.61
2019-05-05T08:31:46.694Z,14.37
2019-05-05T08:32:54.512Z,13.43
2019-05-05T08:33:46.608Z,12.63
2019-05-05T08:34:56.885Z,12.05
2019-05-05T08:35:47.485Z,11.94
2019-05-05T08:36:50.740Z,11.97
2019-05-05T08:37:46.530Z,11.78
2019-05-05T08:38:55.725Z,12.45
2019-05-05T08:41:07.337Z,12.81
2019-05-05T08:44:57.658Z,10.71
2019-05-05T08:45:57.639Z,12.01
2019-05-05T08:47:13.789Z,12.96
2019-05-05T08:48:04.981Z,13.27
2019-05-05T08:48:58.602Z,13.99
2019-05-05T08:49:57.641Z,14.42
2019-05-05T08:51:14.117Z,15.39
2019-05-05T08:54:05.216Z,15.20
2019-05-05T08:55:08.820Z,14.56
2019-05-05T08:55:57.634Z,14.75
2019-05-05T08:56:57.318Z,14.56
2019-05-05T08:57:59.848Z,14.47
2019-05-05T08:58:58.023Z,15.03
2019-05-05T08:59:57.965Z,15.02
2019-05-05T09:00:57.948Z,15.13
2019-05-05T09:01:58.852Z,14.75
2019-05-05T09:02:57.284Z,13.51
2019-05-05T09:04:18.563Z,13.98
2019-05-05T09:04:57.037Z,13.14
2019-05-05T09:06:13.739Z,12.37
2019-05-05T09:06:58.086Z,12.46
2019-05-05T09:08:18.308Z,13.74
2019-05-05T09:08:57.872Z,13.95
2019-05-05T09:09:57.046Z,14.34
2019-05-05T09:10:58.166Z,13.91
2019-05-05T09:11:56.922Z,13.98
2019-05-05T09:12:57.134Z,13.14
2019-05-05T09:13:58.289Z,12.34
2019-05-05T09:14:56.946Z,12.01
2019-05-05T09:15:56.884Z,11.49
2019-05-05T09:16:59.826Z,11.47
2019-05-05T09:17:57.136Z,11.43
2019-05-05T09:18:57.315Z,11.49
2019-05-05T09:19:57.824Z,12.71
2019-05-05T09:20:56.815Z,13.77
2019-05-05T09:21:57.902Z,14.28
2019-05-05T09:22:57.352Z,15.03
2019-05-05T09:24:01.712Z,14.95
2019-05-05T09:24:56.837Z,15.35
2019-05-05T09:25:56.761Z,15.61
2019-05-05T09:26:57.377Z,16.35
2019-05-05T09:27:56.757Z,16.70
2019-05-05T09:28:59.561Z,17.28
2019-05-05T09:29:57.943Z,16.56
2019-05-05T09:30:57.086Z,16.27
2019-05-05T09:32:17.717Z,16.80
2019-05-05T09:32:57.291Z,16.86
2019-05-05T09:33:57.405Z,15.96
2019-05-05T09:34:56.984Z,15.39
2019-05-05T09:35:56.822Z,14.90
2019-05-05T09:36:56.672Z,14.14
2019-05-05T09:38:00.299Z,13.87
2019-05-05T09:38:56.620Z,13.71
2019-05-05T09:39:58.513Z,14.10
2019-05-05T09:40:56.619Z,15.01
2019-05-05T09:41:57.340Z,15.97
2019-05-05T09:42:57.473Z,16.60
2019-05-05T09:43:57.467Z,16.56
2019-05-05T09:44:56.552Z,14.71
2019-05-05T09:45:56.545Z,13.69
2019-05-05T09:47:04.789Z,13.51
2019-05-05T09:48:20.596Z,12.75
2019-05-05T09:48:57.312Z,12.38
2019-05-05T09:49:56.516Z,12.51
2019-05-05T09:50:57.297Z,12.62
2019-05-05T09:51:59.494Z,12.59
2019-05-05T09:52:56.493Z,12.15
2019-05-05T09:54:11.121Z,11.80
2019-05-05T09:54:58.307Z,12.01
2019-05-05T09:55:56.490Z,12.02
2019-05-05T09:56:57.377Z,11.96
2019-05-05T09:57:57.597Z,11.87
2019-05-05T09:58:56.478Z,11.75
2019-05-05T09:59:57.818Z,11.77
2019-05-05T10:01:17.391Z,12.12
2019-05-05T10:01:56.359Z,12.99
2019-05-05T10:02:57.523Z,13.59
2019-05-05T10:03:57.364Z,14.06
2019-05-05T10:04:56.516Z,13.84
2019-05-05T10:05:59.391Z,13.21
2019-05-05T10:06:57.303Z,13.22
2019-05-05T10:07:56.843Z,13.22
2019-05-05T10:09:01.317Z,13.00
2019-05-05T10:09:56.305Z,13.02
2019-05-05T10:10:57.989Z,12.95
2019-05-05T10:11:58.793Z,13.38
2019-05-05T10:12:56.236Z,13.47
2019-05-05T10:13:57.905Z,13.96
2019-05-05T10:15:07.209Z,14.38
2019-05-05T10:15:59.044Z,14.38
2019-05-05T10:16:56.229Z,14.06
2019-05-05T10:17:56.297Z,13.84
2019-05-05T10:19:01.562Z,13.77
2019-05-05T10:19:56.154Z,13.67
2019-05-05T10:20:56.855Z,13.29
2019-05-05T10:21:57.188Z,12.99
2019-05-05T10:22:56.378Z,12.81
2019-05-05T10:23:57.578Z,12.85
2019-05-05T10:24:58.907Z,12.69
2019-05-05T10:25:56.111Z,12.69
2019-05-05T10:26:58.782Z,12.70
2019-05-05T10:27:56.323Z,12.77
2019-05-05T10:28:56.100Z,12.01
2019-05-05T10:29:56.094Z,11.90
2019-05-05T10:30:56.038Z,11.99
2019-05-05T10:31:56.928Z,11.89
2019-05-05T10:33:03.751Z,11.35
2019-05-05T10:33:56.907Z,11.11
2019-05-05T10:34:56.030Z,10.99
2019-05-05T10:35:56.559Z,11.07
2019-05-05T10:36:55.965Z,11.28
2019-05-05T10:37:55.948Z,11.64
2019-05-05T10:38:55.943Z,11.89
2019-05-05T10:39:56.824Z,12.12
2019-05-05T10:40:55.947Z,12.15
2019-05-05T10:41:56.834Z,11.89
2019-05-05T10:42:58.837Z,11.47
2019-05-05T10:43:55.889Z,11.47
2019-05-05T10:44:56.321Z,11.70
2019-05-05T10:45:56.060Z,11.97
2019-05-05T10:46:55.961Z,12.09
2019-05-05T10:47:58.793Z,12.30
2019-05-05T10:48:59.619Z,12.04
2019-05-05T10:49:55.834Z,12.12
2019-05-05T10:50:56.839Z,11.86
2019-05-05T10:51:55.825Z,12.01
2019-05-05T10:52:55.785Z,11.75
2019-05-05T10:53:58.324Z,11.34
2019-05-05T10:54:56.020Z,11.28
2019-05-05T10:55:55.788Z,11.29
2019-05-05T10:56:55.780Z,11.25
2019-05-05T10:57:55.785Z,11.27
2019-05-05T10:58:58.476Z,11.38
2019-05-05T11:00:09.392Z,11.25
2019-05-05T11:00:59.956Z,11.29
2019-05-05T11:01:57.401Z,11.35
2019-05-05T11:02:55.868Z,11.32
2019-05-05T11:03:55.694Z,11.41
2019-05-05T11:04:55.646Z,11.70
2019-05-05T11:05:55.634Z,11.86
2019-05-05T11:06:55.654Z,12.06
2019-05-05T11:07:55.789Z,12.29
2019-05-05T11:08:55.629Z,12.60
2019-05-05T11:09:55.696Z,12.79
2019-05-05T11:10:55.574Z,12.93
2019-05-05T11:11:56.156Z,12.81
2019-05-05T11:12:55.574Z,12.97
2019-05-05T11:13:55.551Z,13.03
2019-05-05T11:14:55.560Z,13.21
2019-05-05T11:15:56.387Z,13.40
2019-05-05T11:16:58.295Z,13.37
2019-05-05T11:17:56.368Z,13.38
2019-05-05T11:18:56.323Z,13.29
2019-05-05T11:19:55.517Z,13.30
2019-05-05T11:21:06.117Z,13.67
2019-05-05T11:25:00.127Z,13.83
2019-05-05T11:27:13.151Z,13.98
2019-05-05T11:28:09.694Z,13.89
2019-05-05T11:29:10.605Z,13.44
2019-05-05T11:30:10.251Z,13.21
2019-05-05T11:31:09.652Z,13.22
2019-05-05T11:32:09.777Z,13.37
2019-05-05T11:33:09.632Z,13.54
2019-05-05T11:34:09.614Z,13.65
2019-05-05T11:35:09.602Z,13.95
2019-05-05T11:36:10.108Z,13.99
2019-05-05T11:37:09.701Z,14.09
2019-05-05T11:38:09.573Z,13.65
2019-05-05T11:39:09.571Z,13.55
2019-05-05T11:40:09.547Z,13.25
2019-05-05T11:41:09.685Z,13.03
2019-05-05T11:42:09.534Z,13.04
2019-05-05T11:43:09.551Z,13.20
2019-05-05T11:44:09.519Z,13.36
2019-05-05T11:45:09.499Z,12.96
2019-05-05T11:46:09.513Z,12.79
2019-05-05T11:47:09.526Z,12.13
2019-05-05T11:48:10.182Z,12.06
2019-05-05T11:49:09.463Z,11.99
2019-05-05T11:50:09.438Z,12.20
2019-05-05T11:51:09.485Z,12.29
2019-05-05T11:52:09.415Z,12.39
2019-05-05T11:53:09.432Z,12.66
2019-05-05T11:54:09.392Z,12.71
2019-05-05T11:55:12.178Z,12.95
2019-05-05T11:56:09.382Z,13.04
2019-05-05T11:57:09.786Z,13.25
2019-05-05T11:58:09.537Z,13.37
2019-05-05T11:59:09.345Z,13.22
2019-05-05T12:00:09.341Z,13.09
2019-05-05T12:01:09.318Z,13.36
2019-05-05T12:02:10.105Z,13.84
2019-05-05T12:03:09.356Z,14.19
2019-05-05T12:04:09.397Z,14.16
2019-05-05T12:05:09.463Z,14.32
2019-05-05T12:06:09.266Z,14.75
2019-05-05T12:07:09.381Z,15.02
2019-05-05T12:08:09.264Z,15.20
2019-05-05T12:09:09.232Z,15.46
2019-05-05T12:10:09.306Z,15.82
2019-05-05T12:11:09.204Z,15.74
2019-05-05T12:12:09.201Z,15.85
2019-05-05T12:13:09.189Z,15.74
2019-05-05T12:14:09.186Z,15.94
2019-05-05T12:15:09.184Z,15.81
2019-05-05T12:16:09.395Z,16.04
2019-05-05T12:17:10.169Z,16.20
2019-05-05T12:18:09.631Z,15.68
2019-05-05T12:19:10.135Z,15.86
2019-05-05T12:20:10.111Z,15.85
2019-05-05T12:21:09.178Z,15.75
2019-05-05T12:22:09.587Z,15.45
2019-05-05T12:23:09.073Z,15.12
2019-05-05T12:24:09.103Z,15.02
2019-05-05T12:25:22.554Z,14.72
2019-05-05T12:26:10.041Z,14.62
2019-05-05T12:27:09.026Z,14.62
2019-05-05T12:28:09.110Z,14.65
2019-05-05T12:29:09.013Z,14.44
2019-05-05T12:30:09.030Z,14.27
2019-05-05T12:31:09.077Z,14.09
2019-05-05T12:32:12.243Z,13.84
2019-05-05T12:33:08.962Z,13.88
2019-05-05T12:34:08.955Z,13.95
2019-05-05T12:35:08.976Z,13.98
2019-05-05T12:36:08.958Z,13.95
2019-05-05T12:37:08.970Z,13.80
2019-05-05T12:38:09.586Z,13.33
2019-05-05T12:39:08.897Z,13.22
2019-05-05T12:40:08.907Z,13.27
2019-05-05T12:41:08.899Z,13.25
2019-05-05T12:42:08.860Z,13.30
2019-05-05T12:43:08.849Z,13.20
2019-05-05T12:44:08.838Z,13.27
2019-05-05T12:45:08.826Z,13.32
2019-05-05T12:46:08.814Z,13.38
2019-05-05T12:47:08.832Z,13.24
2019-05-05T12:48:08.837Z,12.93
2019-05-05T12:49:10.089Z,13.18
2019-05-05T12:50:09.590Z,13.47
2019-05-05T12:51:09.583Z,13.54
2019-05-05T12:52:08.784Z,13.70
2019-05-05T12:53:08.754Z,13.70
2019-05-05T12:54:08.726Z,13.88
2019-05-05T12:55:08.719Z,14.09
2019-05-05T12:56:08.749Z,14.02
2019-05-05T12:57:08.708Z,13.98
2019-05-05T12:58:08.703Z,14.01
2019-05-05T12:59:08.701Z,14.24
2019-05-05T13:00:08.673Z,14.10
2019-05-05T13:01:09.585Z,14.31
2019-05-05T13:02:09.581Z,14.72
2019-05-05T13:03:08.867Z,15.01
2019-05-05T13:04:08.631Z,14.74
2019-05-05T13:05:09.561Z,14.71
2019-05-05T13:06:08.600Z,14.74
2019-05-05T13:07:08.586Z,14.80